sensor_id;sensor_type;location;lat;lon;timestamp;P1;durP1;ratioP1;P2;durP2;ratioP2
69906;SDS011;57190;47.918;8.112;2023-12-20T00:00:54;2.37;;;2.13;;
69906;SDS011;57190;47.918;8.112;2023-12-20T00:03:20;1.90;;;1.80;;
69906;SDS011;57190;47.918;8.112;2023-12-20T00:05:45;0.63;;;0.63;;
69906;SDS011;57190;47.918;8.112;2023-12-20T00:08:12;3.83;;;2.93;;
69906;SDS011;57190;47.918;8.112;2023-12-20T00:10:37;2.20;;;2.00;;
69906;SDS011;57190;47.918;8.112;2023-12-20T00:13:02;0.67;;;0.67;;
69906;SDS011;57190;47.918;8.112;2023-12-20T00:15:28;0.40;;;0.40;;
69906;SDS011;57190;47.918;8.112;2023-12-20T00:17:53;0.50;;;0.50;;
69906;SDS011;57190;47.918;8.112;2023-12-20T00:20:19;1.57;;;1.47;;
69906;SDS011;57190;47.918;8.112;2023-12-20T00:22:44;0.70;;;0.70;;
69906;SDS011;57190;47.918;8.112;2023-12-20T00:25:10;0.60;;;0.60;;
69906;SDS011;57190;47.918;8.112;2023-12-20T00:27:35;0.40;;;0.40;;
69906;SDS011;57190;47.918;8.112;2023-12-20T00:30:01;0.70;;;0.50;;
69906;SDS011;57190;47.918;8.112;2023-12-20T00:32:26;0.40;;;0.40;;
69906;SDS011;57190;47.918;8.112;2023-12-20T00:34:52;0.57;;;0.50;;
69906;SDS011;57190;47.918;8.112;2023-12-20T00:37:17;0.40;;;0.40;;
69906;SDS011;57190;47.918;8.112;2023-12-20T00:39:43;0.40;;;0.40;;
69906;SDS011;57190;47.918;8.112;2023-12-20T00:42:08;0.50;;;0.50;;
69906;SDS011;57190;47.918;8.112;2023-12-20T00:44:34;0.40;;;0.40;;
69906;SDS011;57190;47.918;8.112;2023-12-20T00:46:59;0.43;;;0.43;;
69906;SDS011;57190;47.918;8.112;2023-12-20T00:49:26;0.60;;;0.60;;
69906;SDS011;57190;47.918;8.112;2023-12-20T00:51:51;0.60;;;0.50;;
69906;SDS011;57190;47.918;8.112;2023-12-20T00:54:18;0.93;;;0.50;;
69906;SDS011;57190;47.918;8.112;2023-12-20T00:56:43;0.50;;;0.43;;
69906;SDS011;57190;47.918;8.112;2023-12-20T00:59:09;0.50;;;0.50;;
69906;SDS011;57190;47.918;8.112;2023-12-20T01:01:34;0.43;;;0.43;;
69906;SDS011;57190;47.918;8.112;2023-12-20T01:04:00;0.40;;;0.40;;
69906;SDS011;57190;47.918;8.112;2023-12-20T01:06:25;0.50;;;0.50;;
69906;SDS011;57190;47.918;8.112;2023-12-20T01:08:51;0.50;;;0.50;;
69906;SDS011;57190;47.918;8.112;2023-12-20T01:11:16;0.30;;;0.30;;
69906;SDS011;57190;47.918;8.112;2023-12-20T01:13:42;0.40;;;0.40;;
69906;SDS011;57190;47.918;8.112;2023-12-20T01:16:10;0.50;;;0.50;;
69906;SDS011;57190;47.918;8.112;2023-12-20T01:18:37;0.40;;;0.40;;
69906;SDS011;57190;47.918;8.112;2023-12-20T01:21:03;0.50;;;0.50;;
69906;SDS011;57190;47.918;8.112;2023-12-20T01:23:29;0.40;;;0.40;;
69906;SDS011;57190;47.918;8.112;2023-12-20T01:25:54;0.40;;;0.40;;
69906;SDS011;57190;47.918;8.112;2023-12-20T01:28:20;0.50;;;0.50;;
69906;SDS011;57190;47.918;8.112;2023-12-20T01:30:45;0.40;;;0.40;;
69906;SDS011;57190;47.918;8.112;2023-12-20T01:33:11;0.30;;;0.30;;
69906;SDS011;57190;47.918;8.112;2023-12-20T01:35:36;0.50;;;0.50;;
69906;SDS011;57190;47.918;8.112;2023-12-20T01:38:02;0.50;;;0.30;;
69906;SDS011;57190;47.918;8.112;2023-12-20T01:40:28;0.40;;;0.40;;
69906;SDS011;57190;47.918;8.112;2023-12-20T01:45:26;0.30;;;0.30;;
69906;SDS011;57190;47.918;8.112;2023-12-20T01:47:51;0.37;;;0.37;;
69906;SDS011;57190;47.918;8.112;2023-12-20T01:50:17;0.33;;;0.33;;
69906;SDS011;57190;47.918;8.112;2023-12-20T01:52:42;0.40;;;0.40;;
69906;SDS011;57190;47.918;8.112;2023-12-20T01:55:09;0.47;;;0.47;;
69906;SDS011;57190;47.918;8.112;2023-12-20T01:57:43;0.93;;;0.37;;
69906;SDS011;57190;47.918;8.112;2023-12-20T02:00:09;0.60;;;0.40;;
69906;SDS011;57190;47.918;8.112;2023-12-20T02:02:36;1.47;;;0.40;;
69906;SDS011;57190;47.918;8.112;2023-12-20T02:22:08;0.40;;;0.40;;
69906;SDS011;57190;47.918;8.112;2023-12-20T02:24:34;0.37;;;0.37;;
69906;SDS011;57190;47.918;8.112;2023-12-20T02:27:00;0.40;;;0.40;;
69906;SDS011;57190;47.918;8.112;2023-12-20T02:29:25;0.30;;;0.30;;
69906;SDS011;57190;47.918;8.112;2023-12-20T02:31:52;0.43;;;0.43;;
69906;SDS011;57190;47.918;8.112;2023-12-20T02:34:17;0.30;;;0.30;;
69906;SDS011;57190;47.918;8.112;2023-12-20T02:36:42;0.40;;;0.40;;
69906;SDS011;57190;47.918;8.112;2023-12-20T02:39:08;0.70;;;0.40;;
69906;SDS011;57190;47.918;8.112;2023-12-20T02:41:33;0.40;;;0.40;;
69906;SDS011;57190;47.918;8.112;2023-12-20T02:43:59;0.37;;;0.37;;
69906;SDS011;57190;47.918;8.112;2023-12-20T02:46:25;0.40;;;0.40;;
69906;SDS011;57190;47.918;8.112;2023-12-20T02:48:50;0.50;;;0.50;;
69906;SDS011;57190;47.918;8.112;2023-12-20T02:51:16;0.50;;;0.50;;
69906;SDS011;57190;47.918;8.112;2023-12-20T02:53:41;0.50;;;0.50;;
69906;SDS011;57190;47.918;8.112;2023-12-20T02:56:07;0.43;;;0.43;;
69906;SDS011;57190;47.918;8.112;2023-12-20T02:58:32;0.40;;;0.40;;
69906;SDS011;57190;47.918;8.112;2023-12-20T03:00:57;0.40;;;0.40;;
69906;SDS011;57190;47.918;8.112;2023-12-20T03:03:23;0.30;;;0.30;;
69906;SDS011;57190;47.918;8.112;2023-12-20T03:05:48;0.30;;;0.30;;
69906;SDS011;57190;47.918;8.112;2023-12-20T03:08:14;0.30;;;0.30;;
69906;SDS011;57190;47.918;8.112;2023-12-20T03:10:39;0.40;;;0.40;;
69906;SDS011;57190;47.918;8.112;2023-12-20T03:13:05;0.37;;;0.37;;
69906;SDS011;57190;47.918;8.112;2023-12-20T03:15:30;0.97;;;0.37;;
69906;SDS011;57190;47.918;8.112;2023-12-20T03:17:55;0.30;;;0.30;;
69906;SDS011;57190;47.918;8.112;2023-12-20T03:20:21;0.33;;;0.33;;
69906;SDS011;57190;47.918;8.112;2023-12-20T03:22:46;0.47;;;0.47;;
69906;SDS011;57190;47.918;8.112;2023-12-20T03:25:12;0.40;;;0.40;;
69906;SDS011;57190;47.918;8.112;2023-12-20T03:27:37;0.40;;;0.40;;
69906;SDS011;57190;47.918;8.112;2023-12-20T03:30:06;0.40;;;0.40;;
69906;SDS011;57190;47.918;8.112;2023-12-20T03:32:32;0.40;;;0.40;;
69906;SDS011;57190;47.918;8.112;2023-12-20T03:34:57;0.40;;;0.40;;
69906;SDS011;57190;47.918;8.112;2023-12-20T03:37:23;0.43;;;0.43;;
69906;SDS011;57190;47.918;8.112;2023-12-20T03:39:48;0.40;;;0.40;;
69906;SDS011;57190;47.918;8.112;2023-12-20T03:42:14;0.40;;;0.40;;
69906;SDS011;57190;47.918;8.112;2023-12-20T03:44:39;0.43;;;0.43;;
69906;SDS011;57190;47.918;8.112;2023-12-20T03:47:05;0.40;;;0.40;;
69906;SDS011;57190;47.918;8.112;2023-12-20T03:49:31;0.30;;;0.30;;
69906;SDS011;57190;47.918;8.112;2023-12-20T03:51:57;1.07;;;0.33;;
69906;SDS011;57190;47.918;8.112;2023-12-20T03:54:22;0.40;;;0.40;;
69906;SDS011;57190;47.918;8.112;2023-12-20T03:56:47;0.40;;;0.40;;
69906;SDS011;57190;47.918;8.112;2023-12-20T03:59:13;0.50;;;0.50;;
69906;SDS011;57190;47.918;8.112;2023-12-20T04:01:42;0.40;;;0.40;;
69906;SDS011;57190;47.918;8.112;2023-12-20T04:04:09;0.43;;;0.43;;
69906;SDS011;57190;47.918;8.112;2023-12-20T04:06:35;0.30;;;0.30;;
69906;SDS011;57190;47.918;8.112;2023-12-20T04:09:00;0.50;;;0.50;;
69906;SDS011;57190;47.918;8.112;2023-12-20T04:14:19;0.40;;;0.40;;
69906;SDS011;57190;47.918;8.112;2023-12-20T04:16:44;0.40;;;0.40;;
69906;SDS011;57190;47.918;8.112;2023-12-20T04:19:10;0.40;;;0.40;;
69906;SDS011;57190;47.918;8.112;2023-12-20T04:21:35;0.40;;;0.40;;
69906;SDS011;57190;47.918;8.112;2023-12-20T04:24:01;0.30;;;0.30;;
69906;SDS011;57190;47.918;8.112;2023-12-20T04:26:26;0.50;;;0.50;;
69906;SDS011;57190;47.918;8.112;2023-12-20T04:28:51;0.33;;;0.33;;
69906;SDS011;57190;47.918;8.112;2023-12-20T04:31:17;0.43;;;0.43;;
69906;SDS011;57190;47.918;8.112;2023-12-20T04:33:42;0.30;;;0.30;;
69906;SDS011;57190;47.918;8.112;2023-12-20T04:36:08;0.50;;;0.50;;
69906;SDS011;57190;47.918;8.112;2023-12-20T04:38:34;0.33;;;0.33;;
69906;SDS011;57190;47.918;8.112;2023-12-20T04:40:59;0.47;;;0.43;;
69906;SDS011;57190;47.918;8.112;2023-12-20T04:43:25;0.40;;;0.40;;
69906;SDS011;57190;47.918;8.112;2023-12-20T04:45:50;0.50;;;0.50;;
69906;SDS011;57190;47.918;8.112;2023-12-20T04:48:16;0.40;;;0.40;;
69906;SDS011;57190;47.918;8.112;2023-12-20T04:50:41;0.30;;;0.30;;
69906;SDS011;57190;47.918;8.112;2023-12-20T04:53:07;0.30;;;0.30;;
69906;SDS011;57190;47.918;8.112;2023-12-20T04:55:32;0.50;;;0.50;;
69906;SDS011;57190;47.918;8.112;2023-12-20T04:57:58;0.30;;;0.30;;
69906;SDS011;57190;47.918;8.112;2023-12-20T05:00:23;0.30;;;0.30;;
69906;SDS011;57190;47.918;8.112;2023-12-20T05:02:49;0.50;;;0.50;;
69906;SDS011;57190;47.918;8.112;2023-12-20T05:05:14;0.37;;;0.37;;
69906;SDS011;57190;47.918;8.112;2023-12-20T05:07:42;0.50;;;0.50;;
69906;SDS011;57190;47.918;8.112;2023-12-20T05:10:08;0.57;;;0.57;;
69906;SDS011;57190;47.918;8.112;2023-12-20T05:12:34;0.70;;;0.70;;
69906;SDS011;57190;47.918;8.112;2023-12-20T05:14:59;3.83;;;3.40;;
69906;SDS011;57190;47.918;8.112;2023-12-20T05:17:25;5.93;;;4.83;;
69906;SDS011;57190;47.918;8.112;2023-12-20T05:19:51;2.53;;;2.33;;
69906;SDS011;57190;47.918;8.112;2023-12-20T05:22:17;1.20;;;1.13;;
69906;SDS011;57190;47.918;8.112;2023-12-20T05:24:43;0.80;;;0.80;;
69906;SDS011;57190;47.918;8.112;2023-12-20T05:27:09;0.80;;;0.70;;
69906;SDS011;57190;47.918;8.112;2023-12-20T05:29:34;1.40;;;1.40;;
69906;SDS011;57190;47.918;8.112;2023-12-20T05:32:00;0.70;;;0.70;;
69906;SDS011;57190;47.918;8.112;2023-12-20T05:34:25;0.60;;;0.60;;
69906;SDS011;57190;47.918;8.112;2023-12-20T05:36:50;0.50;;;0.50;;
69906;SDS011;57190;47.918;8.112;2023-12-20T05:39:16;0.50;;;0.50;;
69906;SDS011;57190;47.918;8.112;2023-12-20T05:41:41;0.57;;;0.57;;
69906;SDS011;57190;47.918;8.112;2023-12-20T05:44:07;0.40;;;0.40;;
69906;SDS011;57190;47.918;8.112;2023-12-20T05:46:33;0.40;;;0.40;;
69906;SDS011;57190;47.918;8.112;2023-12-20T05:49:07;0.43;;;0.43;;
69906;SDS011;57190;47.918;8.112;2023-12-20T05:51:35;0.30;;;0.30;;
69906;SDS011;57190;47.918;8.112;2023-12-20T05:54:01;0.43;;;0.43;;
69906;SDS011;57190;47.918;8.112;2023-12-20T05:56:26;0.33;;;0.33;;
69906;SDS011;57190;47.918;8.112;2023-12-20T05:58:52;1.23;;;0.40;;
69906;SDS011;57190;47.918;8.112;2023-12-20T06:01:17;0.60;;;0.60;;
69906;SDS011;57190;47.918;8.112;2023-12-20T06:03:43;0.47;;;0.47;;
69906;SDS011;57190;47.918;8.112;2023-12-20T06:06:09;0.50;;;0.50;;
69906;SDS011;57190;47.918;8.112;2023-12-20T06:08:35;0.50;;;0.50;;
69906;SDS011;57190;47.918;8.112;2023-12-20T06:11:01;0.47;;;0.47;;
69906;SDS011;57190;47.918;8.112;2023-12-20T06:13:27;0.40;;;0.40;;
69906;SDS011;57190;47.918;8.112;2023-12-20T06:15:54;0.73;;;0.40;;
69906;SDS011;57190;47.918;8.112;2023-12-20T06:18:20;0.50;;;0.50;;
69906;SDS011;57190;47.918;8.112;2023-12-20T06:20:45;0.50;;;0.50;;
69906;SDS011;57190;47.918;8.112;2023-12-20T06:23:10;0.50;;;0.50;;
69906;SDS011;57190;47.918;8.112;2023-12-20T06:25:36;0.40;;;0.40;;
69906;SDS011;57190;47.918;8.112;2023-12-20T06:28:01;0.50;;;0.50;;
69906;SDS011;57190;47.918;8.112;2023-12-20T06:30:27;0.70;;;0.60;;
69906;SDS011;57190;47.918;8.112;2023-12-20T06:32:53;0.50;;;0.50;;
69906;SDS011;57190;47.918;8.112;2023-12-20T06:35:19;0.40;;;0.40;;
69906;SDS011;57190;47.918;8.112;2023-12-20T06:37:45;0.40;;;0.40;;
69906;SDS011;57190;47.918;8.112;2023-12-20T06:40:11;0.50;;;0.50;;
69906;SDS011;57190;47.918;8.112;2023-12-20T06:42:37;0.60;;;0.60;;
69906;SDS011;57190;47.918;8.112;2023-12-20T06:45:03;0.50;;;0.50;;
69906;SDS011;57190;47.918;8.112;2023-12-20T06:47:28;0.40;;;0.40;;
69906;SDS011;57190;47.918;8.112;2023-12-20T06:49:54;1.53;;;0.53;;
69906;SDS011;57190;47.918;8.112;2023-12-20T06:52:19;0.53;;;0.53;;
69906;SDS011;57190;47.918;8.112;2023-12-20T06:54:45;0.53;;;0.53;;
69906;SDS011;57190;47.918;8.112;2023-12-20T06:57:10;0.50;;;0.50;;
69906;SDS011;57190;47.918;8.112;2023-12-20T06:59:42;0.40;;;0.40;;
69906;SDS011;57190;47.918;8.112;2023-12-20T07:02:08;0.70;;;0.70;;
69906;SDS011;57190;47.918;8.112;2023-12-20T07:04:34;0.60;;;0.60;;
69906;SDS011;57190;47.918;8.112;2023-12-20T07:07:06;0.60;;;0.60;;
69906;SDS011;57190;47.918;8.112;2023-12-20T07:09:41;0.43;;;0.43;;
69906;SDS011;57190;47.918;8.112;2023-12-20T07:12:08;0.50;;;0.50;;
69906;SDS011;57190;47.918;8.112;2023-12-20T07:14:34;2.40;;;0.40;;
69906;SDS011;57190;47.918;8.112;2023-12-20T07:19:59;0.50;;;0.50;;
69906;SDS011;57190;47.918;8.112;2023-12-20T07:22:46;0.60;;;0.60;;
69906;SDS011;57190;47.918;8.112;2023-12-20T07:25:18;0.40;;;0.40;;
69906;SDS011;57190;47.918;8.112;2023-12-20T07:27:43;0.57;;;0.57;;
69906;SDS011;57190;47.918;8.112;2023-12-20T07:30:09;0.70;;;0.70;;
69906;SDS011;57190;47.918;8.112;2023-12-20T07:32:35;0.60;;;0.60;;
69906;SDS011;57190;47.918;8.112;2023-12-20T07:35:00;0.57;;;0.57;;
69906;SDS011;57190;47.918;8.112;2023-12-20T07:37:26;0.63;;;0.40;;
69906;SDS011;57190;47.918;8.112;2023-12-20T07:39:51;0.50;;;0.50;;
69906;SDS011;57190;47.918;8.112;2023-12-20T07:42:17;0.30;;;0.30;;
69906;SDS011;57190;47.918;8.112;2023-12-20T07:44:42;0.50;;;0.50;;
69906;SDS011;57190;47.918;8.112;2023-12-20T07:47:07;0.47;;;0.47;;
69906;SDS011;57190;47.918;8.112;2023-12-20T07:49:33;0.43;;;0.43;;
69906;SDS011;57190;47.918;8.112;2023-12-20T07:51:58;0.50;;;0.50;;
69906;SDS011;57190;47.918;8.112;2023-12-20T07:54:24;0.50;;;0.50;;
69906;SDS011;57190;47.918;8.112;2023-12-20T07:56:49;0.40;;;0.40;;
69906;SDS011;57190;47.918;8.112;2023-12-20T07:59:15;0.40;;;0.40;;
69906;SDS011;57190;47.918;8.112;2023-12-20T08:01:40;0.50;;;0.50;;
69906;SDS011;57190;47.918;8.112;2023-12-20T08:04:07;0.50;;;0.50;;
69906;SDS011;57190;47.918;8.112;2023-12-20T08:06:32;0.50;;;0.50;;
69906;SDS011;57190;47.918;8.112;2023-12-20T08:08:58;0.40;;;0.40;;
69906;SDS011;57190;47.918;8.112;2023-12-20T08:11:23;0.40;;;0.40;;
69906;SDS011;57190;47.918;8.112;2023-12-20T08:13:49;7.73;;;1.03;;
69906;SDS011;57190;47.918;8.112;2023-12-20T08:16:15;13.03;;;1.10;;
69906;SDS011;57190;47.918;8.112;2023-12-20T08:18:42;0.77;;;0.77;;
69906;SDS011;57190;47.918;8.112;2023-12-20T08:21:08;4.03;;;0.73;;
69906;SDS011;57190;47.918;8.112;2023-12-20T08:23:33;17.80;;;1.23;;
69906;SDS011;57190;47.918;8.112;2023-12-20T08:26:03;1.17;;;0.53;;
69906;SDS011;57190;47.918;8.112;2023-12-20T08:28:30;3.87;;;1.40;;
69906;SDS011;57190;47.918;8.112;2023-12-20T08:30:56;1.00;;;1.00;;
69906;SDS011;57190;47.918;8.112;2023-12-20T08:33:21;0.80;;;0.80;;
69906;SDS011;57190;47.918;8.112;2023-12-20T08:35:47;1.17;;;1.07;;
69906;SDS011;57190;47.918;8.112;2023-12-20T08:38:12;1.00;;;1.00;;
69906;SDS011;57190;47.918;8.112;2023-12-20T08:40:38;0.80;;;0.80;;
69906;SDS011;57190;47.918;8.112;2023-12-20T08:43:03;1.00;;;0.90;;
69906;SDS011;57190;47.918;8.112;2023-12-20T08:45:29;0.80;;;0.80;;
69906;SDS011;57190;47.918;8.112;2023-12-20T08:47:54;0.80;;;0.80;;
69906;SDS011;57190;47.918;8.112;2023-12-20T08:50:19;0.70;;;0.70;;
69906;SDS011;57190;47.918;8.112;2023-12-20T08:52:45;0.87;;;0.77;;
69906;SDS011;57190;47.918;8.112;2023-12-20T08:55:10;0.73;;;0.73;;
69906;SDS011;57190;47.918;8.112;2023-12-20T08:57:36;0.70;;;0.70;;
69906;SDS011;57190;47.918;8.112;2023-12-20T09:00:02;1.00;;;0.80;;
69906;SDS011;57190;47.918;8.112;2023-12-20T09:02:28;0.80;;;0.80;;
69906;SDS011;57190;47.918;8.112;2023-12-20T09:04:54;0.80;;;0.80;;
69906;SDS011;57190;47.918;8.112;2023-12-20T09:07:23;0.87;;;0.87;;
69906;SDS011;57190;47.918;8.112;2023-12-20T09:09:53;1.23;;;1.20;;
69906;SDS011;57190;47.918;8.112;2023-12-20T09:12:19;0.80;;;0.80;;
69906;SDS011;57190;47.918;8.112;2023-12-20T09:14:45;0.70;;;0.70;;
69906;SDS011;57190;47.918;8.112;2023-12-20T09:17:12;1.73;;;0.97;;
69906;SDS011;57190;47.918;8.112;2023-12-20T09:19:38;1.27;;;1.00;;
69906;SDS011;57190;47.918;8.112;2023-12-20T09:22:04;0.90;;;0.90;;
69906;SDS011;57190;47.918;8.112;2023-12-20T09:24:30;0.97;;;0.93;;
69906;SDS011;57190;47.918;8.112;2023-12-20T09:26:55;1.10;;;1.10;;
69906;SDS011;57190;47.918;8.112;2023-12-20T09:29:21;0.83;;;0.83;;
69906;SDS011;57190;47.918;8.112;2023-12-20T09:31:46;1.27;;;1.27;;
69906;SDS011;57190;47.918;8.112;2023-12-20T09:34:14;1.23;;;1.13;;
69906;SDS011;57190;47.918;8.112;2023-12-20T09:36:40;0.90;;;0.90;;
69906;SDS011;57190;47.918;8.112;2023-12-20T09:39:11;0.80;;;0.80;;
69906;SDS011;57190;47.918;8.112;2023-12-20T09:41:38;1.10;;;1.00;;
69906;SDS011;57190;47.918;8.112;2023-12-20T09:44:13;0.70;;;0.70;;
69906;SDS011;57190;47.918;8.112;2023-12-20T09:46:41;0.80;;;0.80;;
69906;SDS011;57190;47.918;8.112;2023-12-20T09:49:10;1.23;;;1.13;;
69906;SDS011;57190;47.918;8.112;2023-12-20T09:51:37;1.20;;;1.10;;
69906;SDS011;57190;47.918;8.112;2023-12-20T09:54:03;1.10;;;1.10;;
69906;SDS011;57190;47.918;8.112;2023-12-20T09:56:29;1.10;;;1.10;;
69906;SDS011;57190;47.918;8.112;2023-12-20T09:58:55;1.00;;;1.00;;
69906;SDS011;57190;47.918;8.112;2023-12-20T10:01:21;1.00;;;1.00;;
69906;SDS011;57190;47.918;8.112;2023-12-20T10:03:48;1.17;;;1.07;;
69906;SDS011;57190;47.918;8.112;2023-12-20T10:06:19;0.90;;;0.90;;
69906;SDS011;57190;47.918;8.112;2023-12-20T10:08:44;1.20;;;1.10;;
69906;SDS011;57190;47.918;8.112;2023-12-20T10:11:10;1.00;;;1.00;;
69906;SDS011;57190;47.918;8.112;2023-12-20T10:13:42;1.10;;;1.10;;
69906;SDS011;57190;47.918;8.112;2023-12-20T10:16:07;0.90;;;0.90;;
69906;SDS011;57190;47.918;8.112;2023-12-20T10:18:33;1.10;;;1.00;;
69906;SDS011;57190;47.918;8.112;2023-12-20T10:20:58;1.10;;;1.10;;
69906;SDS011;57190;47.918;8.112;2023-12-20T10:23:25;1.87;;;1.20;;
69906;SDS011;57190;47.918;8.112;2023-12-20T10:25:57;1.30;;;1.10;;
69906;SDS011;57190;47.918;8.112;2023-12-20T10:28:26;1.30;;;1.20;;
69906;SDS011;57190;47.918;8.112;2023-12-20T10:30:54;0.83;;;0.83;;
69906;SDS011;57190;47.918;8.112;2023-12-20T10:33:26;1.53;;;1.43;;
69906;SDS011;57190;47.918;8.112;2023-12-20T10:35:53;1.33;;;1.23;;
69906;SDS011;57190;47.918;8.112;2023-12-20T10:38:20;1.60;;;1.50;;
69906;SDS011;57190;47.918;8.112;2023-12-20T10:40:46;1.50;;;1.40;;
69906;SDS011;57190;47.918;8.112;2023-12-20T10:43:11;1.67;;;1.57;;
69906;SDS011;57190;47.918;8.112;2023-12-20T10:45:37;1.60;;;1.50;;
69906;SDS011;57190;47.918;8.112;2023-12-20T10:48:03;1.80;;;1.70;;
69906;SDS011;57190;47.918;8.112;2023-12-20T10:50:30;3.03;;;1.90;;
69906;SDS011;57190;47.918;8.112;2023-12-20T10:52:56;1.97;;;1.87;;
69906;SDS011;57190;47.918;8.112;2023-12-20T10:55:22;4.07;;;3.17;;
69906;SDS011;57190;47.918;8.112;2023-12-20T10:57:49;2.83;;;2.57;;
69906;SDS011;57190;47.918;8.112;2023-12-20T11:00:25;4.50;;;2.07;;
69906;SDS011;57190;47.918;8.112;2023-12-20T11:02:51;2.00;;;1.90;;
69906;SDS011;57190;47.918;8.112;2023-12-20T11:05:26;2.17;;;2.07;;
69906;SDS011;57190;47.918;8.112;2023-12-20T11:13:40;2.30;;;2.10;;
69906;SDS011;57190;47.918;8.112;2023-12-20T11:16:18;2.07;;;1.93;;
69906;SDS011;57190;47.918;8.112;2023-12-20T11:18:44;2.20;;;2.00;;
69906;SDS011;57190;47.918;8.112;2023-12-20T11:21:10;2.97;;;2.70;;
69906;SDS011;57190;47.918;8.112;2023-12-20T11:23:36;1.90;;;1.80;;
69906;SDS011;57190;47.918;8.112;2023-12-20T11:26:02;2.87;;;2.30;;
69906;SDS011;57190;47.918;8.112;2023-12-20T11:28:28;2.50;;;2.30;;
69906;SDS011;57190;47.918;8.112;2023-12-20T11:30:55;2.40;;;2.20;;
69906;SDS011;57190;47.918;8.112;2023-12-20T11:33:36;2.47;;;2.27;;
69906;SDS011;57190;47.918;8.112;2023-12-20T11:36:02;2.33;;;2.13;;
69906;SDS011;57190;47.918;8.112;2023-12-20T11:38:37;2.63;;;2.43;;
69906;SDS011;57190;47.918;8.112;2023-12-20T11:41:05;2.63;;;2.40;;
69906;SDS011;57190;47.918;8.112;2023-12-20T11:43:37;4.23;;;2.33;;
69906;SDS011;57190;47.918;8.112;2023-12-20T11:46:04;2.17;;;2.07;;
69906;SDS011;57190;47.918;8.112;2023-12-20T11:48:31;2.87;;;2.50;;
69906;SDS011;57190;47.918;8.112;2023-12-20T11:50:57;3.30;;;2.40;;
69906;SDS011;57190;47.918;8.112;2023-12-20T11:53:22;2.90;;;2.60;;
69906;SDS011;57190;47.918;8.112;2023-12-20T11:55:48;2.50;;;2.30;;
69906;SDS011;57190;47.918;8.112;2023-12-20T11:58:14;2.30;;;2.10;;
69906;SDS011;57190;47.918;8.112;2023-12-20T12:00:41;2.60;;;2.40;;
69906;SDS011;57190;47.918;8.112;2023-12-20T12:03:08;3.53;;;2.47;;
69906;SDS011;57190;47.918;8.112;2023-12-20T12:05:34;3.77;;;2.60;;
69906;SDS011;57190;47.918;8.112;2023-12-20T12:08:01;2.90;;;2.60;;
69906;SDS011;57190;47.918;8.112;2023-12-20T12:10:27;2.80;;;2.50;;
69906;SDS011;57190;47.918;8.112;2023-12-20T12:12:53;3.50;;;2.20;;
69906;SDS011;57190;47.918;8.112;2023-12-20T12:15:19;2.60;;;2.40;;
69906;SDS011;57190;47.918;8.112;2023-12-20T12:17:52;5.17;;;2.70;;
69906;SDS011;57190;47.918;8.112;2023-12-20T12:20:19;2.40;;;2.20;;
69906;SDS011;57190;47.918;8.112;2023-12-20T12:22:45;3.37;;;2.47;;
69906;SDS011;57190;47.918;8.112;2023-12-20T12:25:12;3.57;;;2.20;;
69906;SDS011;57190;47.918;8.112;2023-12-20T12:27:39;3.83;;;2.47;;
69906;SDS011;57190;47.918;8.112;2023-12-20T12:30:06;2.53;;;2.30;;
69906;SDS011;57190;47.918;8.112;2023-12-20T12:32:35;3.53;;;2.20;;
69906;SDS011;57190;47.918;8.112;2023-12-20T12:35:04;2.80;;;2.60;;
69906;SDS011;57190;47.918;8.112;2023-12-20T12:37:34;4.00;;;2.83;;
69906;SDS011;57190;47.918;8.112;2023-12-20T12:40:00;2.13;;;1.93;;
69906;SDS011;57190;47.918;8.112;2023-12-20T12:42:26;3.00;;;1.97;;
69906;SDS011;57190;47.918;8.112;2023-12-20T12:44:54;3.23;;;2.30;;
69906;SDS011;57190;47.918;8.112;2023-12-20T12:47:20;3.23;;;2.43;;
69906;SDS011;57190;47.918;8.112;2023-12-20T12:49:46;3.80;;;2.43;;
69906;SDS011;57190;47.918;8.112;2023-12-20T12:52:11;3.30;;;2.37;;
69906;SDS011;57190;47.918;8.112;2023-12-20T12:54:36;3.13;;;2.57;;
69906;SDS011;57190;47.918;8.112;2023-12-20T12:57:02;2.30;;;1.93;;
69906;SDS011;57190;47.918;8.112;2023-12-20T12:59:28;4.17;;;2.10;;
69906;SDS011;57190;47.918;8.112;2023-12-20T13:01:53;3.00;;;2.17;;
69906;SDS011;57190;47.918;8.112;2023-12-20T13:04:19;3.33;;;2.20;;
69906;SDS011;57190;47.918;8.112;2023-12-20T13:06:44;3.33;;;2.07;;
69906;SDS011;57190;47.918;8.112;2023-12-20T13:09:09;3.27;;;2.20;;
69906;SDS011;57190;47.918;8.112;2023-12-20T13:11:35;2.07;;;1.67;;
69906;SDS011;57190;47.918;8.112;2023-12-20T13:14:00;4.17;;;1.97;;
69906;SDS011;57190;47.918;8.112;2023-12-20T13:16:26;3.93;;;1.90;;
69906;SDS011;57190;47.918;8.112;2023-12-20T13:18:51;3.10;;;2.10;;
69906;SDS011;57190;47.918;8.112;2023-12-20T13:21:17;2.93;;;2.03;;
69906;SDS011;57190;47.918;8.112;2023-12-20T13:23:42;3.10;;;2.00;;
69906;SDS011;57190;47.918;8.112;2023-12-20T13:26:08;4.93;;;2.27;;
69906;SDS011;57190;47.918;8.112;2023-12-20T13:28:33;4.87;;;1.87;;
69906;SDS011;57190;47.918;8.112;2023-12-20T13:30:59;2.47;;;1.63;;
69906;SDS011;57190;47.918;8.112;2023-12-20T13:33:24;2.63;;;1.67;;
69906;SDS011;57190;47.918;8.112;2023-12-20T13:35:50;3.03;;;1.60;;
69906;SDS011;57190;47.918;8.112;2023-12-20T13:38:16;3.80;;;1.80;;
69906;SDS011;57190;47.918;8.112;2023-12-20T13:40:41;3.03;;;1.73;;
69906;SDS011;57190;47.918;8.112;2023-12-20T13:43:07;1.50;;;1.40;;
69906;SDS011;57190;47.918;8.112;2023-12-20T13:45:33;2.60;;;1.50;;
69906;SDS011;57190;47.918;8.112;2023-12-20T13:47:59;3.00;;;1.40;;
69906;SDS011;57190;47.918;8.112;2023-12-20T13:50:24;3.00;;;1.70;;
69906;SDS011;57190;47.918;8.112;2023-12-20T13:52:51;2.90;;;1.40;;
69906;SDS011;57190;47.918;8.112;2023-12-20T13:55:16;3.67;;;1.70;;
69906;SDS011;57190;47.918;8.112;2023-12-20T13:57:42;3.47;;;1.40;;
69906;SDS011;57190;47.918;8.112;2023-12-20T14:00:07;1.73;;;1.13;;
69906;SDS011;57190;47.918;8.112;2023-12-20T14:02:39;2.43;;;1.30;;
69906;SDS011;57190;47.918;8.112;2023-12-20T14:05:06;3.53;;;1.10;;
69906;SDS011;57190;47.918;8.112;2023-12-20T14:07:32;5.30;;;1.30;;
69906;SDS011;57190;47.918;8.112;2023-12-20T14:09:57;2.53;;;1.20;;
69906;SDS011;57190;47.918;8.112;2023-12-20T14:12:24;3.47;;;1.10;;
69906;SDS011;57190;47.918;8.112;2023-12-20T14:14:50;3.80;;;1.60;;
69906;SDS011;57190;47.918;8.112;2023-12-20T14:17:15;1.73;;;1.30;;
69906;SDS011;57190;47.918;8.112;2023-12-20T14:19:41;3.73;;;1.27;;
69906;SDS011;57190;47.918;8.112;2023-12-20T14:22:06;2.37;;;1.10;;
69906;SDS011;57190;47.918;8.112;2023-12-20T14:24:31;3.57;;;1.30;;
69906;SDS011;57190;47.918;8.112;2023-12-20T14:30:19;3.07;;;1.20;;
69906;SDS011;57190;47.918;8.112;2023-12-20T14:32:44;3.20;;;1.43;;
69906;SDS011;57190;47.918;8.112;2023-12-20T14:35:11;3.23;;;1.33;;
69906;SDS011;57190;47.918;8.112;2023-12-20T14:37:37;2.90;;;1.10;;
69906;SDS011;57190;47.918;8.112;2023-12-20T14:40:06;3.70;;;1.33;;
69906;SDS011;57190;47.918;8.112;2023-12-20T14:42:35;2.20;;;1.27;;
69906;SDS011;57190;47.918;8.112;2023-12-20T14:45:02;3.60;;;1.47;;
69906;SDS011;57190;47.918;8.112;2023-12-20T14:47:28;3.47;;;1.50;;
69906;SDS011;57190;47.918;8.112;2023-12-20T14:49:53;2.63;;;1.37;;
69906;SDS011;57190;47.918;8.112;2023-12-20T14:52:19;1.70;;;1.40;;
69906;SDS011;57190;47.918;8.112;2023-12-20T14:54:44;2.57;;;1.40;;
69906;SDS011;57190;47.918;8.112;2023-12-20T14:57:10;3.87;;;2.10;;
69906;SDS011;57190;47.918;8.112;2023-12-20T14:59:36;2.30;;;1.73;;
69906;SDS011;57190;47.918;8.112;2023-12-20T15:02:01;2.70;;;1.47;;
69906;SDS011;57190;47.918;8.112;2023-12-20T15:04:33;2.13;;;1.70;;
69906;SDS011;57190;47.918;8.112;2023-12-20T15:06:59;2.10;;;1.20;;
69906;SDS011;57190;47.918;8.112;2023-12-20T15:09:26;1.40;;;1.20;;
69906;SDS011;57190;47.918;8.112;2023-12-20T15:11:56;2.50;;;1.53;;
69906;SDS011;57190;47.918;8.112;2023-12-20T15:14:21;2.53;;;1.30;;
69906;SDS011;57190;47.918;8.112;2023-12-20T15:16:47;4.30;;;1.70;;